Time;durP1;ratioP1;P1;durP2;ratioP2;P2;SDS_P1;SDS_P2;PMS_P1;PMS_P2;Temp;Humidity;BMP_temperature;BMP_pressure;BME280_temperature;BME280_humidity;BME280_pressure;Samples;Min_cycle;Max_cycle;Signal;HPM_P1;HPM_P2
2024/04/06 00:01:48;;;;;;;1.65;1.20;;;;;;;17.73;51.83;97130.75;5009569;28;20028;-81
2024/04/06 00:04:14;;;;;;;1.58;1.00;;;;;;;17.75;52.22;97134.66;4996231;28;20091;-77
2024/04/06 00:06:39;;;;;;;2.17;1.10;;;;;;;17.70;52.24;97132.13;5008607;28;20037;-76
2024/04/06 00:09:05;;;;;;;1.70;1.40;;;;;;;17.71;51.90;97136.31;5009951;28;20475;-76
2024/04/06 00:11:30;;;;;;;2.83;1.20;;;;;;;17.67;52.02;97135.34;5012206;28;20029;-77
2024/04/06 00:13:55;;;;;;;1.30;1.20;;;;;;;17.74;51.51;97130.47;5015275;28;20025;-77
2024/04/06 00:16:21;;;;;;;2.97;1.42;;;;;;;17.70;50.91;97126.84;5013055;28;20438;-77
2024/04/06 00:18:46;;;;;;;2.17;1.10;;;;;;;17.62;51.70;97122.25;5008126;28;20090;-77
2024/04/06 00:21:12;;;;;;;3.00;1.23;;;;;;;17.70;51.48;97126.84;5012478;28;20032;-77
2024/04/06 00:23:37;;;;;;;1.30;1.20;;;;;;;17.71;50.65;97125.78;5012613;28;20085;-76
2024/04/06 00:26:02;;;;;;;1.67;1.33;;;;;;;17.67;51.15;97130.06;5028619;28;20069;-76
2024/04/06 00:28:31;;;;;;;1.38;1.00;;;;;;;17.69;50.88;97127.91;5031048;28;20036;-75
2024/04/06 00:30:57;;;;;;;1.88;1.10;;;;;;;17.68;50.92;97136.88;5028910;28;20029;-76
2024/04/06 00:33:22;;;;;;;1.25;1.00;;;;;;;17.62;50.74;97126.75;5030105;28;20037;-76
2024/04/06 00:35:48;;;;;;;1.88;1.08;;;;;;;17.65;50.83;97134.03;5032614;28;20040;-75
2024/04/06 00:38:13;;;;;;;3.13;1.13;;;;;;;17.59;50.72;97136.78;5043966;28;20037;-77
2024/04/06 00:40:38;;;;;;;2.45;1.77;;;;;;;17.57;50.90;97132.88;5032658;28;20499;-77
2024/04/06 00:43:04;;;;;;;2.20;1.05;;;;;;;17.44;51.58;97133.63;5047938;28;20510;-75
2024/04/06 00:45:30;;;;;;;1.20;1.10;;;;;;;17.42;50.95;97134.69;5026366;28;20032;-77
2024/04/06 00:47:55;;;;;;;1.90;1.30;;;;;;;17.40;51.09;97136.06;5009437;28;20128;-77
2024/04/06 00:50:20;;;;;;;1.80;1.10;;;;;;;17.41;51.02;97132.38;5015528;28;20433;-77
2024/04/06 00:52:46;;;;;;;2.15;1.23;;;;;;;17.38;51.21;97125.81;5033020;28;20044;-76
2024/04/06 00:55:12;;;;;;;1.67;1.13;;;;;;;17.40;51.21;97122.91;4996699;28;20503;-76
2024/04/06 00:57:37;;;;;;;1.65;1.08;;;;;;;17.39;50.49;97122.13;5029900;28;20103;-76
2024/04/06 01:00:03;;;;;;;1.38;1.00;;;;;;;17.40;50.58;97121.03;5010817;28;20676;-75
2024/04/06 01:02:28;;;;;;;1.90;1.40;;;;;;;17.37;49.92;97123.47;5004229;28;20029;-76
2024/04/06 01:04:54;;;;;;;3.78;1.55;;;;;;;17.41;50.31;97127.88;5016463;28;20025;-76
2024/04/06 01:07:20;;;;;;;2.60;1.10;;;;;;;17.41;50.40;97130.50;5031082;28;20163;-77
2024/04/06 01:09:45;;;;;;;2.40;1.05;;;;;;;17.48;49.66;97137.25;5016525;28;20029;-76
2024/04/06 01:12:11;;;;;;;2.42;1.20;;;;;;;17.46;50.00;97123.59;5031517;28;20033;-76
2024/04/06 01:14:37;;;;;;;1.58;1.00;;;;;;;17.39;50.26;97126.59;5012493;28;20034;-81
2024/04/06 01:17:05;;;;;;;1.98;1.02;;;;;;;17.40;49.89;97121.03;5002732;28;20572;-81
2024/04/06 01:19:30;;;;;;;1.75;0.90;;;;;;;17.34;50.06;97110.88;4989919;28;20113;-82
2024/04/06 01:21:56;;;;;;;1.42;1.00;;;;;;;17.35;50.14;97118.50;5048988;28;20547;-82
2024/04/06 01:24:31;;;;;;;1.10;0.80;;;;;;;17.29;49.34;97111.78;5015122;28;20116;-82
2024/04/06 01:27:00;;;;;;;2.17;1.02;;;;;;;17.32;49.62;97105.91;5026472;28;20083;-81
2024/04/06 01:29:26;;;;;;;2.67;1.17;;;;;;;17.21;49.84;97112.44;4995962;28;20040;-82
2024/04/06 01:31:52;;;;;;;1.10;0.90;;;;;;;17.20;50.05;97109.03;4998698;28;20046;-81
2024/04/06 01:34:17;;;;;;;2.30;1.17;;;;;;;17.21;50.04;97107.19;5047360;28;20397;-77
2024/04/06 01:36:43;;;;;;;1.42;0.95;;;;;;;17.22;49.46;97095.56;4995756;28;20116;-76
2024/04/06 01:39:09;;;;;;;1.45;1.05;;;;;;;17.20;49.45;97097.72;5028799;28;20090;-76
2024/04/06 01:41:38;;;;;;;1.17;0.85;;;;;;;17.29;48.74;97101.25;5021922;28;20039;-77
2024/04/06 01:44:04;;;;;;;1.95;0.98;;;;;;;17.09;49.59;97091.84;5030927;28;20029;-76
2024/04/06 01:46:30;;;;;;;1.20;0.93;;;;;;;17.18;48.91;97094.59;5011858;28;20456;-76
2024/04/06 01:48:57;;;;;;;1.95;0.82;;;;;;;17.19;48.29;97083.00;5015891;28;20032;-76
2024/04/06 01:51:22;;;;;;;2.72;1.02;;;;;;;17.25;48.83;97075.78;5027448;28;20041;-77
2024/04/06 01:53:48;;;;;;;1.42;0.90;;;;;;;17.30;48.43;97087.00;4995307;28;20444;-77
2024/04/06 01:56:13;;;;;;;2.17;0.90;;;;;;;17.27;48.58;97084.94;5006167;28;21135;-77
2024/04/06 01:58:39;;;;;;;1.85;1.00;;;;;;;17.25;48.56;97083.69;5012194;28;20539;-76
2024/04/06 02:01:04;;;;;;;1.50;0.85;;;;;;;17.25;49.45;97078.44;4989382;28;20570;-77
2024/04/06 02:03:30;;;;;;;1.58;1.00;;;;;;;17.21;48.76;97086.13;5028476;28;20109;-77
2024/04/06 02:05:58;;;;;;;2.67;0.98;;;;;;;16.99;49.04;97074.38;5013531;28;20037;-76
2024/04/06 02:08:24;;;;;;;1.83;0.65;;;;;;;17.00;49.13;97078.56;5020977;28;20025;-76
2024/04/06 02:10:49;;;;;;;1.15;0.85;;;;;;;17.00;48.86;97086.47;4999297;28;20044;-77
2024/04/06 02:13:14;;;;;;;1.05;0.77;;;;;;;17.08;49.16;97094.75;4995554;28;20040;-77
2024/04/06 02:15:40;;;;;;;1.58;0.77;;;;;;;17.13;48.72;97090.19;5008196;28;20033;-75
2024/04/06 02:18:05;;;;;;;1.15;0.85;;;;;;;17.00;48.26;97096.22;5011563;28;20572;-75
2024/04/06 02:20:31;;;;;;;2.50;1.02;;;;;;;17.16;48.81;97091.47;5006086;28;20120;-77
2024/04/06 02:22:56;;;;;;;2.47;0.95;;;;;;;17.24;47.61;97101.34;5025893;28;20029;-77
2024/04/06 02:25:22;;;;;;;2.72;0.98;;;;;;;17.19;48.37;97102.19;5013801;28;20040;-82
2024/04/06 02:27:48;;;;;;;2.10;0.70;;;;;;;17.20;47.92;97105.59;5012487;28;20382;-81
2024/04/06 02:30:15;;;;;;;1.67;0.70;;;;;;;17.18;48.11;97116.41;5008339;28;20435;-81
2024/04/06 02:32:40;;;;;;;3.08;1.00;;;;;;;17.16;48.50;97099.38;5006055;28;20400;-82
2024/04/06 02:35:06;;;;;;;1.13;1.00;;;;;;;17.18;48.02;97105.13;5019291;28;20033;-84
2024/04/06 02:37:31;;;;;;;2.65;0.73;;;;;;;17.10;48.50;97098.69;5014536;28;20197;-80
2024/04/06 02:39:57;;;;;;;1.63;0.90;;;;;;;16.99;48.89;97098.03;5015482;28;20090;-82
2024/04/06 02:42:23;;;;;;;3.75;0.95;;;;;;;17.10;48.05;97089.97;5014357;28;20025;-82
2024/04/06 02:44:48;;;;;;;1.50;0.95;;;;;;;17.04;48.56;97081.41;5045967;28;20151;-79
2024/04/06 02:47:15;;;;;;;1.38;0.60;;;;;;;17.06;47.77;97095.03;5026152;28;20047;-82
2024/04/06 02:49:41;;;;;;;1.17;0.90;;;;;;;16.93;48.46;97088.69;4992605;28;20091;-82
2024/04/06 02:52:07;;;;;;;1.42;0.90;;;;;;;17.08;47.72;97097.38;5028009;28;20122;-81
2024/04/06 02:54:33;;;;;;;1.17;0.80;;;;;;;17.09;48.08;97098.97;4989683;28;20033;-81
2024/04/06 02:56:58;;;;;;;1.27;0.68;;;;;;;17.13;48.26;97098.06;5010581;28;20558;-81
2024/04/06 02:59:24;;;;;;;2.08;0.90;;;;;;;17.10;47.54;97103.94;5010877;28;20039;-80
2024/04/06 03:01:49;;;;;;;2.13;0.80;;;;;;;17.15;47.79;97109.13;5023347;28;20036;-82
2024/04/06 03:04:15;;;;;;;1.17;0.80;;;;;;;17.15;47.66;97109.13;5010509;28;20115;-81
2024/04/06 03:06:40;;;;;;;2.17;0.80;;;;;;;17.14;47.82;97112.03;5004574;28;20029;-81
2024/04/06 03:09:06;;;;;;;1.35;0.80;;;;;;;17.03;47.91;97114.81;5009365;28;20496;-81
2024/04/06 03:11:32;;;;;;;1.85;1.00;;;;;;;17.08;47.60;97126.31;5002009;28;20501;-81
2024/04/06 03:13:57;;;;;;;0.80;0.70;;;;;;;16.99;47.65;97113.81;5004389;28;20091;-81
2024/04/06 03:16:23;;;;;;;1.98;0.77;;;;;;;16.92;47.69;97110.78;4993229;28;20064;-81
2024/04/06 03:18:48;;;;;;;2.55;1.00;;;;;;;16.97;48.03;97118.59;4979831;28;20029;-81
2024/04/06 03:21:13;;;;;;;1.83;0.80;;;;;;;16.89;47.91;97111.34;5000554;28;20086;-81
2024/04/06 03:23:39;;;;;;;1.83;0.80;;;;;;;16.91;48.35;97113.69;5030294;28;20040;-81
2024/04/06 03:26:04;;;;;;;0.88;0.80;;;;;;;16.92;47.82;97107.38;5010538;28;20033;-81
2024/04/06 03:28:30;;;;;;;1.80;0.77;;;;;;;16.93;47.21;97112.34;5025286;28;20076;-81
2024/04/06 03:30:57;;;;;;;1.40;0.80;;;;;;;16.91;48.31;97118.94;5007457;28;20064;-82
2024/04/06 03:33:22;;;;;;;1.17;0.90;;;;;;;16.89;48.61;97132.38;5029839;28;20068;-82
2024/04/06 03:35:48;;;;;;;3.67;1.00;;;;;;;16.75;47.98;97132.28;5030778;28;20075;-76
2024/04/06 03:38:13;;;;;;;0.77;0.70;;;;;;;16.86;48.32;97138.22;5013147;28;20408;-76
2024/04/06 03:40:39;;;;;;;1.75;0.80;;;;;;;16.75;48.19;97119.16;5016784;28;20037;-75
2024/04/06 03:43:04;;;;;;;1.90;0.90;;;;;;;16.84;47.83;97129.84;5009396;28;20033;-75
2024/04/06 03:45:30;;;;;;;0.82;0.70;;;;;;;16.90;47.76;97133.97;5031019;28;20047;-76
2024/04/06 03:47:55;;;;;;;1.45;0.90;;;;;;;16.87;47.42;97124.00;5028146;28;20040;-76
2024/04/06 03:50:20;;;;;;;0.75;0.63;;;;;;;16.88;47.13;97122.94;4999368;28;20033;-77
2024/04/06 03:52:47;;;;;;;4.60;0.95;;;;;;;16.92;47.04;97123.94;4998865;28;20486;-76
2024/04/06 03:55:13;;;;;;;1.33;0.73;;;;;;;16.94;47.27;97134.94;5031965;28;20384;-81
2024/04/06 03:57:39;;;;;;;0.75;0.60;;;;;;;16.88;47.45;97128.22;4984818;28;20036;-81
2024/04/06 04:00:13;;;;;;;1.17;0.73;;;;;;;16.77;47.47;97119.63;4996636;28;20044;-80
2024/04/06 04:02:39;;;;;;;1.67;0.88;;;;;;;16.70;47.07;97113.19;5014165;28;20025;-81
2024/04/06 04:05:05;;;;;;;2.55;0.90;;;;;;;16.69;48.02;97122.13;5016825;28;20408;-82
2024/04/06 04:07:32;;;;;;;1.25;0.98;;;;;;;16.63;48.13;97121.44;4990629;28;20108;-81
2024/04/06 04:10:02;;;;;;;0.85;0.85;;;;;;;16.66;48.51;97113.75;4996328;28;20033;-82
2024/04/06 04:12:31;;;;;;;3.95;0.98;;;;;;;16.62;47.93;97111.97;5004132;28;20041;-81
2024/04/06 04:15:06;;;;;;;1.20;1.10;;;;;;;16.66;48.30;97116.38;5021649;28;20032;-81
2024/04/06 04:17:34;;;;;;;1.02;0.80;;;;;;;16.53;48.71;97108.44;5001445;28;20551;-81
2024/04/06 04:20:04;;;;;;;1.85;0.90;;;;;;;16.61;48.43;97126.19;5029745;28;20063;-81
2024/04/06 04:22:30;;;;;;;1.00;0.90;;;;;;;16.54;47.75;97112.63;5016649;28;20029;-82
2024/04/06 04:24:55;;;;;;;1.90;0.80;;;;;;;16.63;48.28;97130.09;4997585;28;20389;-81
2024/04/06 04:27:21;;;;;;;1.33;0.77;;;;;;;16.70;47.86;97126.34;5011299;28;20037;-79
2024/04/06 04:29:46;;;;;;;1.65;1.10;;;;;;;16.67;48.16;97131.09;5033583;28;20057;-82
2024/04/06 04:32:12;;;;;;;2.25;0.90;;;;;;;16.64;48.18;97136.91;5032786;28;20410;-82
2024/04/06 04:34:37;;;;;;;2.35;1.02;;;;;;;16.67;48.11;97135.56;4996972;28;20055;-82
2024/04/06 04:37:05;;;;;;;1.77;0.85;;;;;;;16.60;47.98;97135.91;5027813;28;20045;-81
2024/04/06 04:39:32;;;;;;;0.90;0.90;;;;;;;16.59;48.51;97137.00;4994904;28;20119;-82
2024/04/06 04:41:57;;;;;;;1.73;1.20;;;;;;;16.50;48.50;97138.69;5016188;28;20024;-81
2024/04/06 04:44:23;;;;;;;0.77;0.77;;;;;;;16.50;48.71;97149.19;5032518;28;20033;-82
2024/04/06 04:46:48;;;;;;;1.65;0.70;;;;;;;16.42;48.97;97148.00;5020123;28;20392;-77
2024/04/06 04:49:13;;;;;;;1.58;1.10;;;;;;;16.40;48.98;97141.44;5030305;28;20063;-77
2024/04/06 04:51:39;;;;;;;1.17;0.95;;;;;;;16.41;48.57;97141.16;5030558;28;20041;-77
2024/04/06 04:54:05;;;;;;;0.90;0.77;;;;;;;16.39;48.00;97150.41;5035078;28;20060;-76
2024/04/06 04:56:30;;;;;;;2.15;1.45;;;;;;;16.51;47.80;97142.88;5027812;28;20032;-78
2024/04/06 04:58:56;;;;;;;1.38;0.73;;;;;;;16.55;47.89;97148.34;5030786;28;20448;-76
2024/04/06 05:01:21;;;;;;;1.02;0.95;;;;;;;16.56;48.04;97150.69;5015145;28;20485;-77
2024/04/06 05:03:46;;;;;;;1.40;1.00;;;;;;;16.59;47.92;97154.63;5016339;28;20087;-76
2024/04/06 05:06:12;;;;;;;1.40;1.02;;;;;;;16.57;47.70;97154.91;5015966;28;20036;-76
2024/04/06 05:08:39;;;;;;;1.27;0.88;;;;;;;16.50;48.46;97151.81;5029455;28;20030;-77
2024/04/06 05:11:04;;;;;;;0.88;0.88;;;;;;;16.50;48.00;97149.19;5036077;28;20436;-77
2024/04/06 05:13:30;;;;;;;0.95;0.93;;;;;;;16.52;47.93;97141.81;5029979;28;20064;-78
2024/04/06 05:15:57;;;;;;;1.63;0.75;;;;;;;16.59;47.87;97141.47;5029763;28;20218;-76
2024/04/06 05:18:23;;;;;;;1.33;0.70;;;;;;;16.59;47.70;97142.25;5011000;28;20550;-76
2024/04/06 05:20:52;;;;;;;3.40;0.80;;;;;;;16.66;47.74;97142.66;5004332;28;20061;-77
2024/04/06 05:23:18;;;;;;;2.35;1.00;;;;;;;16.73;47.97;97138.91;5007610;28;20108;-81
2024/04/06 05:25:45;;;;;;;0.90;0.70;;;;;;;16.72;47.88;97137.34;5009913;28;20073;-82
2024/04/06 05:28:11;;;;;;;0.80;0.60;;;;;;;16.79;47.64;97135.13;4992751;28;20025;-80
2024/04/06 05:30:36;;;;;;;2.35;0.70;;;;;;;16.75;47.30;97148.06;5005846;28;20124;-82
2024/04/06 05:33:02;;;;;;;2.33;0.90;;;;;;;16.91;47.58;97148.66;5015380;28;20089;-82
2024/04/06 05:35:27;;;;;;;1.23;0.80;;;;;;;16.97;47.15;97152.00;5004352;28;20029;-82
2024/04/06 05:37:53;;;;;;;1.27;0.82;;;;;;;17.01;47.09;97161.66;4998293;28;20036;-80
2024/04/06 05:40:19;;;;;;;2.00;1.10;;;;;;;17.10;47.28;97159.19;4996326;28;20159;-81
2024/04/06 05:42:45;;;;;;;0.80;0.80;;;;;;;17.18;46.44;97160.38;4995244;28;20468;-81
2024/04/06 05:45:11;;;;;;;1.63;0.70;;;;;;;17.28;46.96;97170.72;5010419;28;20033;-82
2024/04/06 05:47:36;;;;;;;1.13;1.00;;;;;;;17.29;46.35;97163.59;5011596;28;20033;-82
2024/04/06 05:50:02;;;;;;;1.60;0.77;;;;;;;17.26;46.46;97174.72;5012334;28;20488;-81
2024/04/06 05:52:28;;;;;;;0.93;0.73;;;;;;;17.38;46.67;97175.81;5008134;28;20032;-82
2024/04/06 05:54:53;;;;;;;1.45;0.88;;;;;;;17.34;46.84;97168.78;5028605;28;20048;-82
2024/04/06 05:57:18;;;;;;;1.73;0.90;;;;;;;17.41;46.11;97180.53;5006603;28;20132;-82
2024/04/06 05:59:44;;;;;;;2.35;1.00;;;;;;;17.48;46.19;97176.72;5043357;28;20057;-82
2024/04/06 06:02:09;;;;;;;1.92;0.98;;;;;;;17.55;45.68;97175.28;5024396;28;20039;-83
2024/04/06 06:04:35;;;;;;;0.77;0.65;;;;;;;17.64;46.18;97183.31;5028830;28;20413;-82
2024/04/06 06:07:00;;;;;;;0.95;0.82;;;;;;;17.65;46.06;97173.53;5007720;28;20033;-81
2024/04/06 06:09:26;;;;;;;1.65;1.10;;;;;;;17.72;45.68;97168.69;5010615;28;20044;-81
2024/04/06 06:11:52;;;;;;;1.67;0.65;;;;;;;17.78;45.23;97170.16;5016925;28;20029;-82
2024/04/06 06:14:17;;;;;;;1.80;0.82;;;;;;;17.87;45.32;97170.28;5021992;28;20405;-79
2024/04/06 06:16:43;;;;;;;2.65;0.80;;;;;;;18.05;44.72;97171.28;5015052;28;20075;-82
2024/04/06 06:19:09;;;;;;;1.35;0.60;;;;;;;18.30;45.14;97177.91;5013568;28;20505;-82
2024/04/06 06:21:34;;;;;;;1.10;0.80;;;;;;;18.43;44.57;97177.13;4996412;28;20115;-82
2024/04/06 06:23:59;;;;;;;1.85;0.80;;;;;;;18.62;44.24;97186.75;5013821;28;20503;-82
2024/04/06 06:26:25;;;;;;;1.13;0.63;;;;;;;18.75;44.27;97178.03;5030480;28;20401;-82
2024/04/06 06:28:50;;;;;;;1.17;0.95;;;;;;;18.75;43.80;97178.03;5003756;28;20061;-82
2024/04/06 06:31:16;;;;;;;2.00;0.82;;;;;;;18.79;43.06;97173.72;4981259;28;20021;-83
2024/04/06 06:33:42;;;;;;;0.73;0.60;;;;;;;18.86;43.04;97179.41;5015720;28;20294;-82
2024/04/06 06:36:08;;;;;;;0.80;0.77;;;;;;;18.99;43.45;97187.59;5013649;28;20037;-83
2024/04/06 06:38:34;;;;;;;0.55;0.55;;;;;;;19.08;43.92;97180.50;5002756;28;20119;-83
2024/04/06 06:40:59;;;;;;;1.35;0.80;;;;;;;19.09;44.00;97176.81;5013952;28;20573;-81
2024/04/06 06:43:25;;;;;;;1.67;0.80;;;;;;;19.12;43.01;97181.47;5011354;28;20360;-80
2024/04/06 06:45:50;;;;;;;1.33;0.77;;;;;;;19.27;42.62;97188.25;5004150;28;20131;-81
2024/04/06 06:48:16;;;;;;;1.70;0.85;;;;;;;19.18;42.43;97180.28;5003255;28;20112;-82
2024/04/06 06:50:41;;;;;;;2.97;1.00;;;;;;;19.16;42.63;97186.91;4991814;28;20057;-81
2024/04/06 06:53:06;;;;;;;0.55;0.55;;;;;;;19.19;42.71;97181.84;5010377;28;20033;-81
2024/04/06 06:55:32;;;;;;;0.93;0.90;;;;;;;19.14;41.63;97189.88;5009577;28;20041;-81
2024/04/06 06:57:58;;;;;;;2.28;1.13;;;;;;;19.05;42.28;97181.09;5027667;28;20029;-81
2024/04/06 07:00:48;;;;;;;1.45;0.93;;;;;;;19.46;43.05;97193.34;5019680;28;20550;-82
2024/04/06 07:03:13;;;;;;;1.90;0.88;;;;;;;19.42;41.36;97195.03;5013818;28;20078;-82
2024/04/06 07:05:39;;;;;;;1.42;0.80;;;;;;;19.64;40.95;97186.31;4994449;28;20436;-78
2024/04/06 07:08:05;;;;;;;1.65;0.80;;;;;;;19.88;40.89;97199.19;5010757;28;20029;-81
2024/04/06 07:10:37;;;;;;;2.35;0.80;;;;;;;20.11;40.84;97185.91;5004821;28;20030;-82
2024/04/06 07:13:03;;;;;;;1.67;0.75;;;;;;;20.25;40.39;97186.56;5004493;28;20115;-81
2024/04/06 07:15:28;;;;;;;1.17;0.80;;;;;;;20.30;41.44;97190.94;5014170;28;20512;-81
2024/04/06 07:17:54;;;;;;;1.42;0.88;;;;;;;20.60;39.75;97191.97;5015546;28;20029;-82
2024/04/06 07:20:19;;;;;;;1.23;0.98;;;;;;;20.74;39.71;97197.13;5015483;28;20029;-82
2024/04/06 07:22:45;;;;;;;1.55;0.90;;;;;;;20.72;38.53;97192.16;5017335;28;20485;-77
2024/04/06 07:25:10;;;;;;;1.00;0.80;;;;;;;20.97;39.46;97200.41;5022323;28;20057;-78
2024/04/06 07:27:36;;;;;;;1.30;0.60;;;;;;;20.94;39.33;97193.88;5011803;28;20131;-82
2024/04/06 07:30:02;;;;;;;1.10;0.80;;;;;;;20.88;38.64;97189.06;4997304;28;20032;-81
2024/04/06 07:32:28;;;;;;;2.25;0.90;;;;;;;21.00;38.74;97181.25;5017513;28;20409;-82
2024/04/06 07:34:53;;;;;;;1.27;0.90;;;;;;;21.22;38.74;97176.91;5004631;28;20028;-82
2024/04/06 07:37:18;;;;;;;1.00;0.70;;;;;;;21.04;38.19;97176.91;4996725;28;20110;-77
2024/04/06 07:39:44;;;;;;;1.25;0.88;;;;;;;21.36;37.96;97177.50;5031794;28;20478;-78
2024/04/06 07:42:09;;;;;;;2.38;0.90;;;;;;;21.66;37.51;97167.00;5032974;28;20033;-77
2024/04/06 07:44:35;;;;;;;1.20;0.82;;;;;;;21.80;37.75;97172.13;4998989;28;20021;-78
2024/04/06 07:47:00;;;;;;;1.85;0.93;;;;;;;21.96;37.68;97167.84;5014893;28;20484;-78
2024/04/06 07:49:26;;;;;;;1.45;0.93;;;;;;;22.16;36.71;97165.56;5033079;28;20242;-78
2024/04/06 07:51:51;;;;;;;1.45;0.80;;;;;;;22.32;36.58;97169.25;5051004;28;20041;-78
2024/04/06 07:54:16;;;;;;;1.40;0.82;;;;;;;22.45;35.44;97162.16;4997813;28;20037;-78
2024/04/06 07:56:42;;;;;;;1.73;1.15;;;;;;;22.69;35.80;97152.78;5012853;28;20033;-78
2024/04/06 07:59:07;;;;;;;0.90;0.80;;;;;;;22.45;35.17;97154.19;4990350;28;20072;-77
2024/04/06 08:01:33;;;;;;;1.38;0.80;;;;;;;22.78;35.31;97148.19;5013386;28;20025;-78
2024/04/06 08:03:59;;;;;;;1.58;1.33;;;;;;;22.90;35.45;97145.59;5000288;28;20062;-78
2024/04/06 08:06:24;;;;;;;0.70;0.70;;;;;;;23.15;35.23;97141.19;5000953;28;20067;-79
2024/04/06 08:08:49;;;;;;;1.13;0.80;;;;;;;23.35;35.08;97136.91;5012599;28;20485;-78
2024/04/06 08:11:16;;;;;;;1.65;1.10;;;;;;;23.05;32.72;97146.06;5033353;28;20033;-77
2024/04/06 08:13:41;;;;;;;1.30;1.20;;;;;;;23.17;33.87;97133.66;5016496;28;20124;-76
2024/04/06 08:16:10;;;;;;;1.45;1.15;;;;;;;23.47;33.33;97125.53;4997849;28;20052;-83
2024/04/06 08:18:35;;;;;;;5.10;1.17;;;;;;;23.64;32.42;97137.06;5010513;28;20029;-81
2024/04/06 08:21:01;;;;;;;2.33;1.00;;;;;;;23.59;32.90;97129.31;5016883;28;20029;-80
2024/04/06 08:23:26;;;;;;;1.02;0.90;;;;;;;23.83;33.05;97134.66;5008438;28;20037;-82
2024/04/06 08:25:54;;;;;;;0.77;0.77;;;;;;;24.02;33.75;97123.47;5025950;28;20037;-82
2024/04/06 08:28:20;;;;;;;1.45;0.80;;;;;;;24.19;33.51;97132.34;5021308;28;20041;-80
2024/04/06 08:30:45;;;;;;;2.22;0.75;;;;;;;24.34;30.35;97134.31;5031594;28;20021;-81
2024/04/06 08:33:10;;;;;;;0.88;0.80;;;;;;;24.49;31.94;97133.63;5011768;28;20148;-81
2024/04/06 08:35:37;;;;;;;1.17;0.60;;;;;;;24.43;31.54;97142.94;4993808;28;20029;-81
2024/04/06 08:38:07;;;;;;;1.10;0.80;;;;;;;24.57;31.47;97144.50;4999814;28;20460;-77
2024/04/06 08:40:42;;;;;;;1.35;0.73;;;;;;;24.64;32.25;97134.84;5013672;28;20497;-78
2024/04/06 08:43:11;;;;;;;;;;;;;;;24.89;31.33;97136.66;4997090;28;20132;-77
2024/04/06 08:45:37;;;;;;;1.40;1.10;;;;;;;24.79;31.94;97122.69;4995577;28;20014;-78
2024/04/06 08:48:03;;;;;;;0.88;0.88;;;;;;;25.09;30.33;97125.03;4990832;28;20397;-77
2024/04/06 08:50:29;;;;;;;2.28;0.93;;;;;;;24.86;31.18;97128.22;5020655;28;20041;-77
2024/04/06 08:52:54;;;;;;;1.02;0.98;;;;;;;25.12;31.02;97119.00;5004781;28;20033;-77
2024/04/06 08:55:20;;;;;;;1.38;0.88;;;;;;;25.11;30.74;97122.78;5005706;28;20484;-77
2024/04/06 08:57:46;;;;;;;1.17;0.73;;;;;;;24.92;28.89;97120.00;5016437;28;20025;-77
2024/04/06 09:00:12;;;;;;;0.50;0.50;;;;;;;25.21;31.01;97111.63;4996396;28;20048;-78
2024/04/06 09:02:38;;;;;;;1.33;0.80;;;;;;;25.55;30.17;97108.66;5026869;28;20037;-78
2024/04/06 09:05:04;;;;;;;1.63;1.00;;;;;;;25.64;32.07;97111.94;4995951;28;20052;-77
2024/04/06 09:07:30;;;;;;;1.23;0.75;;;;;;;25.58;30.61;97113.31;5008319;28;20541;-77
2024/04/06 09:09:56;;;;;;;1.17;1.10;;;;;;;25.78;30.26;97111.50;5013330;28;20125;-77
2024/04/06 09:12:22;;;;;;;1.77;1.00;;;;;;;26.04;28.95;97110.97;4996394;28;20489;-77
2024/04/06 09:14:49;;;;;;;0.90;0.90;;;;;;;26.06;29.52;97121.31;5011378;28;20076;-77
2024/04/06 09:17:15;;;;;;;0.77;0.70;;;;;;;25.95;29.12;97103.16;5020295;28;20491;-77
2024/04/06 09:19:41;;;;;;;1.80;1.23;;;;;;;25.92;29.21;97111.06;4996833;28;20034;-76
2024/04/06 09:22:07;;;;;;;1.08;1.00;;;;;;;26.06;29.21;97107.97;5029081;28;20021;-77
2024/04/06 09:24:32;;;;;;;1.10;0.93;;;;;;;26.34;29.20;97111.25;5025003;28;20091;-76
2024/04/06 09:27:08;;;;;;;1.30;1.02;;;;;;;26.71;29.57;97115.44;5031425;28;20033;-82
2024/04/06 09:29:34;;;;;;;1.27;0.90;;;;;;;26.39;29.04;97104.09;5011513;28;20060;-80
2024/04/06 09:32:04;;;;;;;1.40;1.30;;;;;;;26.81;28.08;97104.19;5015164;28;20053;-81
2024/04/06 09:34:30;;;;;;;1.48;1.38;;;;;;;26.83;27.70;97111.84;4997016;28;20025;-81
2024/04/06 09:37:02;;;;;;;1.23;1.00;;;;;;;27.11;28.37;97111.63;4995672;28;20079;-81
2024/04/06 09:39:31;;;;;;;2.53;0.88;;;;;;;26.98;28.11;97105.66;5014451;28;20052;-82
2024/04/06 09:41:58;;;;;;;1.67;0.90;;;;;;;26.97;27.06;97117.47;4995451;28;20116;-82
2024/04/06 09:44:27;;;;;;;1.27;1.10;;;;;;;26.43;27.93;97102.28;4987373;28;20033;-83
2024/04/06 09:46:53;;;;;;;0.82;0.77;;;;;;;25.93;25.94;97107.28;4987847;28;20068;-80
2024/04/06 09:49:21;;;;;;;1.27;0.75;;;;;;;25.53;29.63;97106.38;5008630;28;20489;-77
2024/04/06 09:51:46;;;;;;;1.83;0.90;;;;;;;25.31;29.00;97093.59;5012620;28;20685;-78
2024/04/06 09:54:12;;;;;;;1.02;0.93;;;;;;;24.99;28.21;97099.63;5011693;28;20136;-77
2024/04/06 09:56:37;;;;;;;1.27;0.95;;;;;;;24.98;28.27;97095.41;5033513;28;20025;-77
2024/04/06 09:59:02;;;;;;;0.90;0.90;;;;;;;25.22;27.71;97102.53;4997905;28;20124;-76
2024/04/06 10:01:28;;;;;;;0.80;0.80;;;;;;;25.32;28.33;97097.81;4998342;28;20124;-76
2024/04/06 10:03:54;;;;;;;1.80;1.00;;;;;;;25.64;28.79;97092.50;5032422;28;20409;-76
2024/04/06 10:06:27;;;;;;;0.85;0.85;;;;;;;25.88;27.33;97100.31;4994744;28;20029;-78
2024/04/06 10:08:59;;;;;;;0.70;0.70;;;;;;;25.89;28.16;97088.53;5006886;28;20390;-77
2024/04/06 10:11:27;;;;;;;1.60;0.75;;;;;;;25.61;28.99;97096.63;5024427;28;20082;-76
2024/04/06 10:14:03;;;;;;;0.88;0.80;;;;;;;25.40;28.11;97096.91;5011940;28;20029;-77
2024/04/06 10:16:29;;;;;;;1.15;0.98;;;;;;;25.32;28.94;97087.16;4992503;28;20346;-78
2024/04/06 10:18:55;;;;;;;1.20;0.98;;;;;;;25.43;27.23;97082.88;5030877;28;20488;-77
2024/04/06 10:21:26;;;;;;;1.50;0.90;;;;;;;25.43;30.45;97093.53;4994894;28;20060;-78
2024/04/06 10:23:53;;;;;;;0.85;0.80;;;;;;;25.68;29.70;97080.78;5014723;28;20500;-78
2024/04/06 10:26:20;;;;;;;0.95;0.93;;;;;;;25.93;29.21;97092.03;5027324;28;20056;-77
2024/04/06 10:28:47;;;;;;;0.80;0.80;;;;;;;26.29;29.64;97081.41;4984463;28;20026;-76
2024/04/06 10:31:12;;;;;;;1.40;0.90;;;;;;;26.47;25.69;97089.75;5029120;28;20040;-77
2024/04/06 10:33:39;;;;;;;1.75;1.20;;;;;;;26.48;26.70;97084.06;4999836;28;20400;-76
2024/04/06 10:36:11;;;;;;;0.98;0.98;;;;;;;26.88;25.61;97090.19;5008305;28;20033;-78
2024/04/06 10:38:41;;;;;;;1.30;1.00;;;;;;;27.05;26.40;97087.06;5017121;28;20700;-76
2024/04/06 10:41:08;;;;;;;0.90;0.90;;;;;;;27.37;26.77;97078.88;5026796;28;20051;-78
2024/04/06 10:43:35;;;;;;;1.20;1.10;;;;;;;27.69;27.05;97070.56;5027858;28;20071;-78
2024/04/06 10:46:00;;;;;;;2.28;0.90;;;;;;;27.97;26.11;97075.59;5029476;28;20536;-77
2024/04/06 10:48:26;;;;;;;1.35;1.02;;;;;;;28.18;24.52;97069.75;5036266;28;20043;-76
2024/04/06 10:50:52;;;;;;;0.95;0.90;;;;;;;28.04;27.34;97066.91;5013646;28;20040;-76
2024/04/06 10:53:18;;;;;;;2.65;1.13;;;;;;;27.97;26.08;97064.13;5004523;28;20033;-76
2024/04/06 10:55:45;;;;;;;1.33;1.10;;;;;;;27.90;25.62;97072.81;5013735;28;20116;-76
2024/04/06 10:58:11;;;;;;;2.08;0.70;;;;;;;28.25;24.55;97065.63;5027223;28;20044;-76
2024/04/06 11:00:40;;;;;;;1.00;0.90;;;;;;;28.50;24.25;97053.31;5015163;28;20480;-77
2024/04/06 11:03:07;;;;;;;1.05;1.05;;;;;;;28.51;25.14;97036.09;5026187;28;20037;-76
2024/04/06 11:05:36;;;;;;;1.23;1.02;;;;;;;28.54;24.52;97046.09;5012598;28;20241;-76
2024/04/06 11:08:09;;;;;;;1.35;0.90;;;;;;;28.57;24.03;97040.03;5027259;28;20123;-78
2024/04/06 11:10:34;;;;;;;0.98;0.85;;;;;;;28.65;21.98;97027.50;5021774;28;20120;-78
2024/04/06 11:13:00;;;;;;;0.68;0.60;;;;;;;29.16;22.85;97031.44;5026798;28;20122;-77
2024/04/06 11:15:27;;;;;;;2.00;0.90;;;;;;;29.47;21.65;97040.84;5006681;28;20463;-77
2024/04/06 11:17:57;;;;;;;0.90;0.90;;;;;;;29.51;20.77;97040.91;5018409;28;20061;-78
2024/04/06 11:20:23;;;;;;;1.10;0.85;;;;;;;29.52;21.39;97037.81;4996912;28;20076;-78
2024/04/06 11:22:49;;;;;;;1.10;0.93;;;;;;;29.53;22.59;97041.31;5044312;28;20497;-76
2024/04/06 11:25:19;;;;;;;1.55;1.45;;;;;;;29.60;21.71;97027.16;5028382;28;20056;-77
2024/04/06 11:27:51;;;;;;;1.15;1.08;;;;;;;30.02;21.42;97021.31;5011400;28;20024;-77
2024/04/06 11:30:17;;;;;;;1.05;0.95;;;;;;;30.23;22.82;97017.19;5002501;28;20037;-76